sensor_id;sensor_type;location;lat;lon;timestamp;temperature;humidity
19829;DHT22;10075;50.924;4.396;2023-08-01T00:00:37;18.40;99.90
19829;DHT22;10075;50.924;4.396;2023-08-01T00:03:04;18.40;99.90
19829;DHT22;10075;50.924;4.396;2023-08-01T00:05:31;18.30;99.90
19829;DHT22;10075;50.924;4.396;2023-08-01T00:07:59;18.30;99.90
19829;DHT22;10075;50.924;4.396;2023-08-01T00:10:28;18.20;99.90
19829;DHT22;10075;50.924;4.396;2023-08-01T00:12:55;18.30;99.90
19829;DHT22;10075;50.924;4.396;2023-08-01T00:15:22;18.30;99.90
19829;DHT22;10075;50.924;4.396;2023-08-01T00:17:48;18.30;99.90
19829;DHT22;10075;50.924;4.396;2023-08-01T00:20:15;18.30;99.90
19829;DHT22;10075;50.924;4.396;2023-08-01T00:22:42;18.20;99.90
19829;DHT22;10075;50.924;4.396;2023-08-01T00:25:11;18.20;99.90
19829;DHT22;10075;50.924;4.396;2023-08-01T00:27:38;18.20;99.90
19829;DHT22;10075;50.924;4.396;2023-08-01T00:30:06;18.20;99.90
19829;DHT22;10075;50.924;4.396;2023-08-01T00:32:34;18.10;99.90
19829;DHT22;10075;50.924;4.396;2023-08-01T00:35:01;18.10;99.90
19829;DHT22;10075;50.924;4.396;2023-08-01T00:37:28;18.10;99.90
19829;DHT22;10075;50.924;4.396;2023-08-01T00:39:55;18.10;99.90
19829;DHT22;10075;50.924;4.396;2023-08-01T00:42:23;18.10;99.90
19829;DHT22;10075;50.924;4.396;2023-08-01T00:44:50;18.20;99.90
19829;DHT22;10075;50.924;4.396;2023-08-01T00:47:19;18.20;99.90
19829;DHT22;10075;50.924;4.396;2023-08-01T00:49:46;18.20;99.90
19829;DHT22;10075;50.924;4.396;2023-08-01T00:52:13;18.20;99.90
19829;DHT22;10075;50.924;4.396;2023-08-01T00:54:40;18.20;99.90
19829;DHT22;10075;50.924;4.396;2023-08-01T00:57:08;18.20;99.90
19829;DHT22;10075;50.924;4.396;2023-08-01T00:59:37;18.20;99.90
19829;DHT22;10075;50.924;4.396;2023-08-01T01:02:04;18.20;99.90
19829;DHT22;10075;50.924;4.396;2023-08-01T01:04:31;18.10;99.90
19829;DHT22;10075;50.924;4.396;2023-08-01T01:07:02;18.00;99.90
19829;DHT22;10075;50.924;4.396;2023-08-01T01:09:29;18.00;99.90
19829;DHT22;10075;50.924;4.396;2023-08-01T01:11:58;17.90;99.90
19829;DHT22;10075;50.924;4.396;2023-08-01T01:14:25;17.90;99.90
19829;DHT22;10075;50.924;4.396;2023-08-01T01:16:54;17.90;99.90
19829;DHT22;10075;50.924;4.396;2023-08-01T01:19:21;17.80;99.90
19829;DHT22;10075;50.924;4.396;2023-08-01T01:21:50;17.80;99.90
19829;DHT22;10075;50.924;4.396;2023-08-01T01:24:18;17.80;99.90
19829;DHT22;10075;50.924;4.396;2023-08-01T01:26:46;17.70;99.90
19829;DHT22;10075;50.924;4.396;2023-08-01T01:29:15;17.60;99.90
19829;DHT22;10075;50.924;4.396;2023-08-01T01:31:42;17.60;99.90
19829;DHT22;10075;50.924;4.396;2023-08-01T01:34:09;17.60;99.90
19829;DHT22;10075;50.924;4.396;2023-08-01T01:36:36;17.60;99.90
19829;DHT22;10075;50.924;4.396;2023-08-01T01:39:05;17.60;99.90
19829;DHT22;10075;50.924;4.396;2023-08-01T01:41:32;17.70;99.90
19829;DHT22;10075;50.924;4.396;2023-08-01T01:43:59;17.70;99.90
19829;DHT22;10075;50.924;4.396;2023-08-01T01:46:25;17.80;99.90
19829;DHT22;10075;50.924;4.396;2023-08-01T01:48:52;17.70;99.90
19829;DHT22;10075;50.924;4.396;2023-08-01T01:51:20;17.80;99.90
19829;DHT22;10075;50.924;4.396;2023-08-01T01:53:47;17.80;99.90
19829;DHT22;10075;50.924;4.396;2023-08-01T01:56:16;17.80;99.90
19829;DHT22;10075;50.924;4.396;2023-08-01T01:58:43;17.80;99.90
19829;DHT22;10075;50.924;4.396;2023-08-01T02:01:10;17.80;99.90
19829;DHT22;10075;50.924;4.396;2023-08-01T02:03:36;17.80;99.90
19829;DHT22;10075;50.924;4.396;2023-08-01T02:06:03;17.80;99.90
19829;DHT22;10075;50.924;4.396;2023-08-01T02:08:30;17.80;99.90
19829;DHT22;10075;50.924;4.396;2023-08-01T02:10:58;17.80;99.90
19829;DHT22;10075;50.924;4.396;2023-08-01T02:13:26;17.80;99.90
19829;DHT22;10075;50.924;4.396;2023-08-01T02:15:53;17.80;99.90
19829;DHT22;10075;50.924;4.396;2023-08-01T02:18:20;17.80;99.90
19829;DHT22;10075;50.924;4.396;2023-08-01T02:20:47;17.80;99.90
19829;DHT22;10075;50.924;4.396;2023-08-01T02:23:14;17.80;99.90
19829;DHT22;10075;50.924;4.396;2023-08-01T02:25:42;17.80;99.90
19829;DHT22;10075;50.924;4.396;2023-08-01T02:28:09;17.80;99.90
19829;DHT22;10075;50.924;4.396;2023-08-01T02:30:37;17.90;99.90
19829;DHT22;10075;50.924;4.396;2023-08-01T02:33:04;17.80;99.90
19829;DHT22;10075;50.924;4.396;2023-08-01T02:35:32;17.90;99.90
19829;DHT22;10075;50.924;4.396;2023-08-01T02:37:59;17.80;99.90
19829;DHT22;10075;50.924;4.396;2023-08-01T02:40:28;17.80;99.90
19829;DHT22;10075;50.924;4.396;2023-08-01T02:42:55;17.90;99.90
19829;DHT22;10075;50.924;4.396;2023-08-01T02:45:22;17.90;99.90
19829;DHT22;10075;50.924;4.396;2023-08-01T02:47:50;17.90;99.90
19829;DHT22;10075;50.924;4.396;2023-08-01T02:50:17;17.90;99.90
19829;DHT22;10075;50.924;4.396;2023-08-01T02:52:44;17.80;99.90
19829;DHT22;10075;50.924;4.396;2023-08-01T02:55:11;17.80;99.90
19829;DHT22;10075;50.924;4.396;2023-08-01T02:57:38;17.70;99.90
19829;DHT22;10075;50.924;4.396;2023-08-01T03:00:06;17.70;99.90
19829;DHT22;10075;50.924;4.396;2023-08-01T03:02:37;17.70;99.90
19829;DHT22;10075;50.924;4.396;2023-08-01T03:05:06;17.70;99.90
19829;DHT22;10075;50.924;4.396;2023-08-01T03:07:33;17.70;99.90
19829;DHT22;10075;50.924;4.396;2023-08-01T03:10:00;17.80;99.90
19829;DHT22;10075;50.924;4.396;2023-08-01T03:12:27;17.70;99.90
19829;DHT22;10075;50.924;4.396;2023-08-01T03:14:54;17.80;99.90
19829;DHT22;10075;50.924;4.396;2023-08-01T03:17:21;17.80;99.90
19829;DHT22;10075;50.924;4.396;2023-08-01T03:19:48;17.80;99.90
19829;DHT22;10075;50.924;4.396;2023-08-01T03:22:17;17.80;99.90
19829;DHT22;10075;50.924;4.396;2023-08-01T03:24:44;17.80;99.90
19829;DHT22;10075;50.924;4.396;2023-08-01T03:27:11;17.80;99.90
19829;DHT22;10075;50.924;4.396;2023-08-01T03:29:38;17.80;99.90
19829;DHT22;10075;50.924;4.396;2023-08-01T03:32:05;17.80;99.90
19829;DHT22;10075;50.924;4.396;2023-08-01T03:34:32;17.80;99.90
19829;DHT22;10075;50.924;4.396;2023-08-01T03:36:59;17.80;99.90
19829;DHT22;10075;50.924;4.396;2023-08-01T03:39:27;17.90;99.90
19829;DHT22;10075;50.924;4.396;2023-08-01T03:41:54;17.90;99.90
19829;DHT22;10075;50.924;4.396;2023-08-01T03:44:21;17.90;99.90
19829;DHT22;10075;50.924;4.396;2023-08-01T03:46:49;17.90;99.90
19829;DHT22;10075;50.924;4.396;2023-08-01T03:49:16;17.90;99.90
19829;DHT22;10075;50.924;4.396;2023-08-01T03:51:43;17.80;99.90
19829;DHT22;10075;50.924;4.396;2023-08-01T03:54:10;17.80;99.90
19829;DHT22;10075;50.924;4.396;2023-08-01T03:56:39;17.80;99.90
19829;DHT22;10075;50.924;4.396;2023-08-01T03:59:08;17.80;99.90
19829;DHT22;10075;50.924;4.396;2023-08-01T04:01:35;17.90;99.90
19829;DHT22;10075;50.924;4.396;2023-08-01T04:04:02;17.80;99.90
19829;DHT22;10075;50.924;4.396;2023-08-01T04:06:29;17.80;99.90
19829;DHT22;10075;50.924;4.396;2023-08-01T04:08:56;17.70;99.90
19829;DHT22;10075;50.924;4.396;2023-08-01T04:11:25;17.70;99.90
19829;DHT22;10075;50.924;4.396;2023-08-01T04:13:54;17.70;99.90
19829;DHT22;10075;50.924;4.396;2023-08-01T04:16:21;17.60;99.90
19829;DHT22;10075;50.924;4.396;2023-08-01T04:18:48;17.60;99.90
19829;DHT22;10075;50.924;4.396;2023-08-01T04:21:16;17.60;99.90
19829;DHT22;10075;50.924;4.396;2023-08-01T04:23:43;17.60;99.90
19829;DHT22;10075;50.924;4.396;2023-08-01T04:26:10;17.60;99.90
19829;DHT22;10075;50.924;4.396;2023-08-01T04:28:37;17.60;99.90
19829;DHT22;10075;50.924;4.396;2023-08-01T04:31:05;17.60;99.90
19829;DHT22;10075;50.924;4.396;2023-08-01T04:33:32;17.60;99.90
19829;DHT22;10075;50.924;4.396;2023-08-01T04:35:59;17.60;99.90
19829;DHT22;10075;50.924;4.396;2023-08-01T04:38:27;17.60;99.90
19829;DHT22;10075;50.924;4.396;2023-08-01T04:40:54;17.60;99.90
19829;DHT22;10075;50.924;4.396;2023-08-01T04:43:21;17.60;99.90
19829;DHT22;10075;50.924;4.396;2023-08-01T04:45:48;17.50;99.90
19829;DHT22;10075;50.924;4.396;2023-08-01T04:48:16;17.50;99.90
19829;DHT22;10075;50.924;4.396;2023-08-01T04:50:44;17.50;99.90
19829;DHT22;10075;50.924;4.396;2023-08-01T04:53:12;17.50;99.90
19829;DHT22;10075;50.924;4.396;2023-08-01T04:55:40;17.60;99.90
19829;DHT22;10075;50.924;4.396;2023-08-01T04:58:07;17.60;99.90
19829;DHT22;10075;50.924;4.396;2023-08-01T05:00:34;17.70;99.90
19829;DHT22;10075;50.924;4.396;2023-08-01T05:03:01;17.70;99.90
19829;DHT22;10075;50.924;4.396;2023-08-01T05:05:29;17.70;99.90
19829;DHT22;10075;50.924;4.396;2023-08-01T05:07:56;17.70;99.90
19829;DHT22;10075;50.924;4.396;2023-08-01T05:10:23;17.80;99.90
19829;DHT22;10075;50.924;4.396;2023-08-01T05:12:50;17.80;99.90
19829;DHT22;10075;50.924;4.396;2023-08-01T05:15:17;17.80;99.90
19829;DHT22;10075;50.924;4.396;2023-08-01T05:17:44;17.80;99.90
19829;DHT22;10075;50.924;4.396;2023-08-01T05:20:11;17.80;99.90
19829;DHT22;10075;50.924;4.396;2023-08-01T05:22:40;17.90;99.90
19829;DHT22;10075;50.924;4.396;2023-08-01T05:25:07;17.90;99.90
19829;DHT22;10075;50.924;4.396;2023-08-01T05:27:34;18.00;99.90
19829;DHT22;10075;50.924;4.396;2023-08-01T05:30:01;18.00;99.90
19829;DHT22;10075;50.924;4.396;2023-08-01T05:32:28;18.10;99.90
19829;DHT22;10075;50.924;4.396;2023-08-01T05:34:55;18.20;99.90
19829;DHT22;10075;50.924;4.396;2023-08-01T05:37:22;18.10;99.90
19829;DHT22;10075;50.924;4.396;2023-08-01T05:39:51;18.10;99.90
19829;DHT22;10075;50.924;4.396;2023-08-01T05:42:18;18.10;99.90
19829;DHT22;10075;50.924;4.396;2023-08-01T05:44:45;18.10;99.90
19829;DHT22;10075;50.924;4.396;2023-08-01T05:47:12;18.20;99.90
19829;DHT22;10075;50.924;4.396;2023-08-01T05:49:39;18.20;99.90
19829;DHT22;10075;50.924;4.396;2023-08-01T05:52:07;18.20;99.90
19829;DHT22;10075;50.924;4.396;2023-08-01T05:54:34;18.30;99.90
19829;DHT22;10075;50.924;4.396;2023-08-01T05:57:02;18.30;99.90
19829;DHT22;10075;50.924;4.396;2023-08-01T05:59:30;18.40;99.90
19829;DHT22;10075;50.924;4.396;2023-08-01T06:01:57;18.70;99.90
19829;DHT22;10075;50.924;4.396;2023-08-01T06:04:24;18.70;99.90
19829;DHT22;10075;50.924;4.396;2023-08-01T06:06:51;18.80;99.90
19829;DHT22;10075;50.924;4.396;2023-08-01T06:09:18;18.90;99.90
19829;DHT22;10075;50.924;4.396;2023-08-01T06:11:45;18.90;99.90
19829;DHT22;10075;50.924;4.396;2023-08-01T06:14:13;18.90;99.90
19829;DHT22;10075;50.924;4.396;2023-08-01T06:16:40;18.90;99.90
19829;DHT22;10075;50.924;4.396;2023-08-01T06:19:07;18.90;99.90
19829;DHT22;10075;50.924;4.396;2023-08-01T06:21:34;18.80;99.90
19829;DHT22;10075;50.924;4.396;2023-08-01T06:24:01;18.70;99.90
19829;DHT22;10075;50.924;4.396;2023-08-01T06:26:28;18.70;99.90
19829;DHT22;10075;50.924;4.396;2023-08-01T06:28:55;18.80;99.90
19829;DHT22;10075;50.924;4.396;2023-08-01T06:31:23;18.90;99.90
19829;DHT22;10075;50.924;4.396;2023-08-01T06:33:50;19.00;99.90
19829;DHT22;10075;50.924;4.396;2023-08-01T06:36:17;19.10;99.90
19829;DHT22;10075;50.924;4.396;2023-08-01T06:38:44;19.30;99.90
19829;DHT22;10075;50.924;4.396;2023-08-01T06:41:11;19.30;99.90
19829;DHT22;10075;50.924;4.396;2023-08-01T06:43:38;19.30;99.90
19829;DHT22;10075;50.924;4.396;2023-08-01T06:46:05;19.40;99.90
19829;DHT22;10075;50.924;4.396;2023-08-01T06:48:34;19.40;99.90
19829;DHT22;10075;50.924;4.396;2023-08-01T06:51:01;19.50;99.90
19829;DHT22;10075;50.924;4.396;2023-08-01T06:53:28;19.50;99.90
19829;DHT22;10075;50.924;4.396;2023-08-01T06:55:55;19.50;99.90
19829;DHT22;10075;50.924;4.396;2023-08-01T06:58:22;19.50;99.90
19829;DHT22;10075;50.924;4.396;2023-08-01T07:00:49;19.40;99.90
19829;DHT22;10075;50.924;4.396;2023-08-01T07:03:16;19.50;99.90
19829;DHT22;10075;50.924;4.396;2023-08-01T07:05:44;19.50;99.90
19829;DHT22;10075;50.924;4.396;2023-08-01T07:08:11;19.50;99.90
19829;DHT22;10075;50.924;4.396;2023-08-01T07:10:38;19.70;99.90
19829;DHT22;10075;50.924;4.396;2023-08-01T07:13:05;19.80;99.90
19829;DHT22;10075;50.924;4.396;2023-08-01T07:15:32;20.00;99.90
19829;DHT22;10075;50.924;4.396;2023-08-01T07:18:00;20.10;99.90
19829;DHT22;10075;50.924;4.396;2023-08-01T07:20:27;20.10;99.90
19829;DHT22;10075;50.924;4.396;2023-08-01T07:22:55;20.20;99.90
19829;DHT22;10075;50.924;4.396;2023-08-01T07:25:22;20.20;99.90
19829;DHT22;10075;50.924;4.396;2023-08-01T07:27:49;20.00;99.90
19829;DHT22;10075;50.924;4.396;2023-08-01T07:30:16;20.00;99.90
19829;DHT22;10075;50.924;4.396;2023-08-01T07:32:43;20.00;99.90
19829;DHT22;10075;50.924;4.396;2023-08-01T07:35:10;19.90;99.90
19829;DHT22;10075;50.924;4.396;2023-08-01T07:37:37;20.00;99.90
19829;DHT22;10075;50.924;4.396;2023-08-01T07:40:07;20.00;99.90
19829;DHT22;10075;50.924;4.396;2023-08-01T07:42:34;20.00;99.90
19829;DHT22;10075;50.924;4.396;2023-08-01T07:45:01;20.00;99.90
19829;DHT22;10075;50.924;4.396;2023-08-01T07:47:27;20.10;99.90
19829;DHT22;10075;50.924;4.396;2023-08-01T07:49:54;20.20;99.90
19829;DHT22;10075;50.924;4.396;2023-08-01T07:52:21;20.20;99.90
19829;DHT22;10075;50.924;4.396;2023-08-01T07:54:48;20.40;99.90
19829;DHT22;10075;50.924;4.396;2023-08-01T07:57:17;20.70;99.90
19829;DHT22;10075;50.924;4.396;2023-08-01T07:59:43;20.80;99.90
19829;DHT22;10075;50.924;4.396;2023-08-01T08:02:10;20.80;99.90
19829;DHT22;10075;50.924;4.396;2023-08-01T08:04:37;20.60;99.90
19829;DHT22;10075;50.924;4.396;2023-08-01T08:07:05;20.50;99.90
19829;DHT22;10075;50.924;4.396;2023-08-01T08:09:32;20.40;99.90
19829;DHT22;10075;50.924;4.396;2023-08-01T08:11:59;20.30;99.90
19829;DHT22;10075;50.924;4.396;2023-08-01T08:14:27;20.20;99.90
19829;DHT22;10075;50.924;4.396;2023-08-01T08:16:55;20.20;99.90
19829;DHT22;10075;50.924;4.396;2023-08-01T08:19:22;20.20;99.90
19829;DHT22;10075;50.924;4.396;2023-08-01T08:21:50;20.20;99.90
19829;DHT22;10075;50.924;4.396;2023-08-01T08:24:16;20.30;99.90
19829;DHT22;10075;50.924;4.396;2023-08-01T08:26:43;20.30;99.90
19829;DHT22;10075;50.924;4.396;2023-08-01T08:29:11;20.50;99.90
19829;DHT22;10075;50.924;4.396;2023-08-01T08:31:39;20.60;99.90
19829;DHT22;10075;50.924;4.396;2023-08-01T08:34:06;20.70;99.90
19829;DHT22;10075;50.924;4.396;2023-08-01T08:36:33;20.70;99.90
19829;DHT22;10075;50.924;4.396;2023-08-01T08:39:00;20.70;99.90
19829;DHT22;10075;50.924;4.396;2023-08-01T08:41:32;20.70;99.90
19829;DHT22;10075;50.924;4.396;2023-08-01T08:44:06;20.80;99.90
19829;DHT22;10075;50.924;4.396;2023-08-01T08:46:40;20.80;99.90
19829;DHT22;10075;50.924;4.396;2023-08-01T08:49:08;20.80;99.90
19829;DHT22;10075;50.924;4.396;2023-08-01T08:51:36;20.80;99.90
19829;DHT22;10075;50.924;4.396;2023-08-01T08:54:03;20.80;99.90
19829;DHT22;10075;50.924;4.396;2023-08-01T08:56:31;20.80;99.90
19829;DHT22;10075;50.924;4.396;2023-08-01T08:58:59;20.80;99.90
19829;DHT22;10075;50.924;4.396;2023-08-01T09:01:26;20.80;99.90
19829;DHT22;10075;50.924;4.396;2023-08-01T09:03:54;20.90;99.90
19829;DHT22;10075;50.924;4.396;2023-08-01T09:06:28;20.90;99.90
19829;DHT22;10075;50.924;4.396;2023-08-01T09:09:00;21.10;99.90
19829;DHT22;10075;50.924;4.396;2023-08-01T09:11:28;21.20;99.90
19829;DHT22;10075;50.924;4.396;2023-08-01T09:13:55;21.20;99.90
19829;DHT22;10075;50.924;4.396;2023-08-01T09:16:22;21.20;99.90
19829;DHT22;10075;50.924;4.396;2023-08-01T09:18:50;21.30;99.90
19829;DHT22;10075;50.924;4.396;2023-08-01T09:21:21;21.60;99.90
19829;DHT22;10075;50.924;4.396;2023-08-01T09:23:49;21.90;99.90
19829;DHT22;10075;50.924;4.396;2023-08-01T09:26:16;22.20;99.90
19829;DHT22;10075;50.924;4.396;2023-08-01T09:28:43;22.20;99.90
19829;DHT22;10075;50.924;4.396;2023-08-01T09:31:11;22.10;99.90
19829;DHT22;10075;50.924;4.396;2023-08-01T09:33:39;21.90;99.90
19829;DHT22;10075;50.924;4.396;2023-08-01T09:36:07;21.80;99.90
19829;DHT22;10075;50.924;4.396;2023-08-01T09:38:36;21.70;99.90
19829;DHT22;10075;50.924;4.396;2023-08-01T09:41:04;21.60;99.90
19829;DHT22;10075;50.924;4.396;2023-08-01T09:43:34;21.50;99.90
19829;DHT22;10075;50.924;4.396;2023-08-01T09:46:02;21.40;99.90
19829;DHT22;10075;50.924;4.396;2023-08-01T09:48:30;21.30;99.90
19829;DHT22;10075;50.924;4.396;2023-08-01T09:51:07;21.40;99.90
19829;DHT22;10075;50.924;4.396;2023-08-01T09:53:46;21.60;99.90
19829;DHT22;10075;50.924;4.396;2023-08-01T09:56:14;21.60;99.90
19829;DHT22;10075;50.924;4.396;2023-08-01T09:58:43;21.60;99.90
19829;DHT22;10075;50.924;4.396;2023-08-01T10:01:12;21.60;99.90
19829;DHT22;10075;50.924;4.396;2023-08-01T10:03:44;21.70;99.90
19829;DHT22;10075;50.924;4.396;2023-08-01T10:06:14;21.60;99.90
19829;DHT22;10075;50.924;4.396;2023-08-01T10:08:45;21.60;99.90
19829;DHT22;10075;50.924;4.396;2023-08-01T10:11:12;21.80;99.90
19829;DHT22;10075;50.924;4.396;2023-08-01T10:13:41;21.90;99.90
19829;DHT22;10075;50.924;4.396;2023-08-01T10:16:09;22.00;99.90
19829;DHT22;10075;50.924;4.396;2023-08-01T10:18:37;22.10;99.90
19829;DHT22;10075;50.924;4.396;2023-08-01T10:21:05;22.20;99.90
19829;DHT22;10075;50.924;4.396;2023-08-01T10:23:33;22.50;99.90
19829;DHT22;10075;50.924;4.396;2023-08-01T10:26:04;22.80;99.90
19829;DHT22;10075;50.924;4.396;2023-08-01T10:28:32;23.00;99.90
19829;DHT22;10075;50.924;4.396;2023-08-01T10:31:07;23.20;99.90
19829;DHT22;10075;50.924;4.396;2023-08-01T10:33:36;23.50;99.90
19829;DHT22;10075;50.924;4.396;2023-08-01T10:36:13;23.50;99.90
19829;DHT22;10075;50.924;4.396;2023-08-01T10:38:51;23.50;99.90
19829;DHT22;10075;50.924;4.396;2023-08-01T10:41:28;23.50;99.90
19829;DHT22;10075;50.924;4.396;2023-08-01T10:44:05;23.80;99.90
19829;DHT22;10075;50.924;4.396;2023-08-01T10:46:46;23.90;99.90
19829;DHT22;10075;50.924;4.396;2023-08-01T10:49:13;24.00;99.90
19829;DHT22;10075;50.924;4.396;2023-08-01T10:51:40;24.10;99.90
19829;DHT22;10075;50.924;4.396;2023-08-01T10:54:07;23.80;99.90
19829;DHT22;10075;50.924;4.396;2023-08-01T10:56:46;23.80;99.90
19829;DHT22;10075;50.924;4.396;2023-08-01T10:59:13;23.70;99.90
19829;DHT22;10075;50.924;4.396;2023-08-01T11:01:45;23.70;99.90
19829;DHT22;10075;50.924;4.396;2023-08-01T11:04:16;23.70;99.90
19829;DHT22;10075;50.924;4.396;2023-08-01T11:06:44;23.60;99.90
19829;DHT22;10075;50.924;4.396;2023-08-01T11:09:16;23.50;99.90
19829;DHT22;10075;50.924;4.396;2023-08-01T11:11:45;23.30;99.90
19829;DHT22;10075;50.924;4.396;2023-08-01T11:14:14;22.90;99.90
19829;DHT22;10075;50.924;4.396;2023-08-01T11:16:43;22.80;99.90
19829;DHT22;10075;50.924;4.396;2023-08-01T11:19:18;22.50;99.90
19829;DHT22;10075;50.924;4.396;2023-08-01T11:21:46;22.40;99.90
19829;DHT22;10075;50.924;4.396;2023-08-01T11:24:13;22.60;99.90
19829;DHT22;10075;50.924;4.396;2023-08-01T11:26:41;22.90;99.90
19829;DHT22;10075;50.924;4.396;2023-08-01T11:29:10;23.30;99.90
19829;DHT22;10075;50.924;4.396;2023-08-01T11:31:38;23.60;99.90
19829;DHT22;10075;50.924;4.396;2023-08-01T11:34:07;23.80;99.90
19829;DHT22;10075;50.924;4.396;2023-08-01T11:36:37;24.00;99.90
19829;DHT22;10075;50.924;4.396;2023-08-01T11:39:04;24.10;99.90
19829;DHT22;10075;50.924;4.396;2023-08-01T11:41:31;24.40;99.90
19829;DHT22;10075;50.924;4.396;2023-08-01T11:44:03;24.80;99.90
19829;DHT22;10075;50.924;4.396;2023-08-01T11:46:34;24.90;99.90
19829;DHT22;10075;50.924;4.396;2023-08-01T11:49:01;24.80;99.90
19829;DHT22;10075;50.924;4.396;2023-08-01T11:51:29;24.80;99.90
19829;DHT22;10075;50.924;4.396;2023-08-01T11:54:00;24.60;99.90
19829;DHT22;10075;50.924;4.396;2023-08-01T11:56:27;24.50;99.90
19829;DHT22;10075;50.924;4.396;2023-08-01T11:58:54;24.20;99.90
19829;DHT22;10075;50.924;4.396;2023-08-01T12:01:21;24.30;99.90
19829;DHT22;10075;50.924;4.396;2023-08-01T12:03:50;24.30;99.90
19829;DHT22;10075;50.924;4.396;2023-08-01T12:06:19;24.40;99.90
19829;DHT22;10075;50.924;4.396;2023-08-01T12:08:48;24.40;99.90
19829;DHT22;10075;50.924;4.396;2023-08-01T12:11:19;24.40;99.90
19829;DHT22;10075;50.924;4.396;2023-08-01T12:13:47;24.40;99.90
19829;DHT22;10075;50.924;4.396;2023-08-01T12:16:14;24.30;99.90
19829;DHT22;10075;50.924;4.396;2023-08-01T12:18:45;24.50;99.90
19829;DHT22;10075;50.924;4.396;2023-08-01T12:21:15;24.60;99.90
19829;DHT22;10075;50.924;4.396;2023-08-01T12:23:42;24.50;99.90
19829;DHT22;10075;50.924;4.396;2023-08-01T12:26:08;24.30;99.90
19829;DHT22;10075;50.924;4.396;2023-08-01T12:28:35;24.00;99.90
19829;DHT22;10075;50.924;4.396;2023-08-01T12:31:03;23.90;99.90
19829;DHT22;10075;50.924;4.396;2023-08-01T12:33:30;23.70;99.90
19829;DHT22;10075;50.924;4.396;2023-08-01T12:35:57;23.60;99.90
19829;DHT22;10075;50.924;4.396;2023-08-01T12:38:26;23.40;99.90
19829;DHT22;10075;50.924;4.396;2023-08-01T12:40:53;23.10;99.90
19829;DHT22;10075;50.924;4.396;2023-08-01T12:43:19;22.90;99.90
19829;DHT22;10075;50.924;4.396;2023-08-01T12:45:46;22.90;99.90
19829;DHT22;10075;50.924;4.396;2023-08-01T12:48:13;23.00;99.90
19829;DHT22;10075;50.924;4.396;2023-08-01T12:50:43;23.30;99.90
19829;DHT22;10075;50.924;4.396;2023-08-01T12:53:12;23.40;99.90
19829;DHT22;10075;50.924;4.396;2023-08-01T12:55:42;23.40;99.90
19829;DHT22;10075;50.924;4.396;2023-08-01T12:58:09;23.30;99.90
19829;DHT22;10075;50.924;4.396;2023-08-01T13:00:36;23.20;99.90
19829;DHT22;10075;50.924;4.396;2023-08-01T13:03:03;23.10;99.90
19829;DHT22;10075;50.924;4.396;2023-08-01T13:05:30;23.20;99.90
19829;DHT22;10075;50.924;4.396;2023-08-01T13:07:57;23.30;99.90
19829;DHT22;10075;50.924;4.396;2023-08-01T13:10:24;23.50;99.90
19829;DHT22;10075;50.924;4.396;2023-08-01T13:12:53;23.60;99.90
19829;DHT22;10075;50.924;4.396;2023-08-01T13:15:20;23.80;99.90
19829;DHT22;10075;50.924;4.396;2023-08-01T13:17:47;23.80;99.90
19829;DHT22;10075;50.924;4.396;2023-08-01T13:20:14;24.10;99.90
19829;DHT22;10075;50.924;4.396;2023-08-01T13:22:41;24.20;99.90
19829;DHT22;10075;50.924;4.396;2023-08-01T13:25:08;24.30;99.90
19829;DHT22;10075;50.924;4.396;2023-08-01T13:27:35;24.20;99.90
19829;DHT22;10075;50.924;4.396;2023-08-01T13:30:04;24.10;99.90
19829;DHT22;10075;50.924;4.396;2023-08-01T13:32:31;23.80;99.90
19829;DHT22;10075;50.924;4.396;2023-08-01T13:34:58;23.70;99.90
19829;DHT22;10075;50.924;4.396;2023-08-01T13:37:26;23.30;99.90
19829;DHT22;10075;50.924;4.396;2023-08-01T13:39:54;23.10;99.90
19829;DHT22;10075;50.924;4.396;2023-08-01T13:42:22;22.90;99.90
19829;DHT22;10075;50.924;4.396;2023-08-01T13:44:49;22.90;99.90
19829;DHT22;10075;50.924;4.396;2023-08-01T13:47:17;22.80;99.90
19829;DHT22;10075;50.924;4.396;2023-08-01T13:49:44;22.80;99.90
19829;DHT22;10075;50.924;4.396;2023-08-01T13:52:11;22.80;99.90
19829;DHT22;10075;50.924;4.396;2023-08-01T13:54:38;22.80;99.90
19829;DHT22;10075;50.924;4.396;2023-08-01T13:57:05;22.80;99.90
19829;DHT22;10075;50.924;4.396;2023-08-01T13:59:32;23.00;99.90
19829;DHT22;10075;50.924;4.396;2023-08-01T14:01:59;23.30;99.90
19829;DHT22;10075;50.924;4.396;2023-08-01T14:04:27;23.60;99.90
19829;DHT22;10075;50.924;4.396;2023-08-01T14:06:54;23.80;99.90
19829;DHT22;10075;50.924;4.396;2023-08-01T14:09:21;23.80;99.90
19829;DHT22;10075;50.924;4.396;2023-08-01T14:11:48;23.90;99.90
19829;DHT22;10075;50.924;4.396;2023-08-01T14:14:15;23.80;99.90
19829;DHT22;10075;50.924;4.396;2023-08-01T14:16:42;23.50;99.90
19829;DHT22;10075;50.924;4.396;2023-08-01T14:19:09;23.10;99.90
19829;DHT22;10075;50.924;4.396;2023-08-01T14:21:38;22.80;99.90
19829;DHT22;10075;50.924;4.396;2023-08-01T14:24:05;22.40;99.90
19829;DHT22;10075;50.924;4.396;2023-08-01T14:26:32;22.10;99.90
19829;DHT22;10075;50.924;4.396;2023-08-01T14:28:58;21.90;99.90
19829;DHT22;10075;50.924;4.396;2023-08-01T14:31:25;21.70;99.90
19829;DHT22;10075;50.924;4.396;2023-08-01T14:33:52;21.60;99.90
19829;DHT22;10075;50.924;4.396;2023-08-01T14:36:19;21.60;99.90
19829;DHT22;10075;50.924;4.396;2023-08-01T14:38:48;21.60;99.90
19829;DHT22;10075;50.924;4.396;2023-08-01T14:41:20;21.50;99.90
19829;DHT22;10075;50.924;4.396;2023-08-01T14:43:46;21.40;99.90
19829;DHT22;10075;50.924;4.396;2023-08-01T14:46:13;21.50;99.90
19829;DHT22;10075;50.924;4.396;2023-08-01T14:48:40;21.60;99.90
19829;DHT22;10075;50.924;4.396;2023-08-01T14:51:07;21.70;99.90
19829;DHT22;10075;50.924;4.396;2023-08-01T14:53:34;21.90;99.90
19829;DHT22;10075;50.924;4.396;2023-08-01T14:56:03;22.10;99.90
19829;DHT22;10075;50.924;4.396;2023-08-01T14:58:32;22.20;99.90
19829;DHT22;10075;50.924;4.396;2023-08-01T15:01:04;22.20;99.90
19829;DHT22;10075;50.924;4.396;2023-08-01T15:03:31;22.10;99.90
19829;DHT22;10075;50.924;4.396;2023-08-01T15:06:05;22.10;99.90
19829;DHT22;10075;50.924;4.396;2023-08-01T15:08:32;22.00;99.90
19829;DHT22;10075;50.924;4.396;2023-08-01T15:11:04;21.90;99.90
19829;DHT22;10075;50.924;4.396;2023-08-01T15:13:31;21.90;99.90
19829;DHT22;10075;50.924;4.396;2023-08-01T15:15:58;21.80;99.90
19829;DHT22;10075;50.924;4.396;2023-08-01T15:18:26;21.60;99.90
19829;DHT22;10075;50.924;4.396;2023-08-01T15:20:53;21.50;99.90
19829;DHT22;10075;50.924;4.396;2023-08-01T15:23:20;21.50;99.90
19829;DHT22;10075;50.924;4.396;2023-08-01T15:25:54;21.40;99.90
19829;DHT22;10075;50.924;4.396;2023-08-01T15:28:24;21.30;99.90
19829;DHT22;10075;50.924;4.396;2023-08-01T15:31:01;21.30;99.90
19829;DHT22;10075;50.924;4.396;2023-08-01T15:33:31;21.30;99.90